EKCH/CPH METAR and TAF weather

Enter ICAO airport designator
Station Type Date Time Source
EKCH METAR 2019/02/23 22:50 UTC NOAA

EKCH 232250Z AUTO 25006KT 9999NDV OVC170/// 02/M02 Q1038 NOSIG


Station Type Date Time Source
EKCH Decoded METAR 2019/02/23 22:50 UTC NOAA

Koebenhavn / Kastrup, Denmark (EKCH) 55-37N 012-39E 5M
Feb 23, 2019 - 05:50 PM EST / 2019.02.23 2250 UTC
Wind: from the WSW (250 degrees) at 7 MPH (6 KT):0
Sky conditions: overcast
Temperature: 35 F (2 C)
Windchill: 28 F (-2 C):1
Dew Point: 28 F (-2 C)
Relative Humidity: 74%
Pressure (altimeter): 30.65 in. Hg (1038 hPa)
ob: EKCH 232250Z AUTO 25006KT 9999NDV OVC170/// 02/M02 Q1038 NOSIG
cycle: 23

Station Type Date Time Source
EKCH TAF 2019/02/23 18:20 UTC NOAA

TAF EKCH 231708Z 2318/2418 20005KT CAVOK


Example: see airport list